sensor_id;sensor_type;location;lat;lon;timestamp;temperature;humidity
36594;DHT22;22603;47.900;8.146;2023-03-31T00:02:40;9.30;99.90
36594;DHT22;22603;47.900;8.146;2023-03-31T00:05:28;9.30;99.90
36594;DHT22;22603;47.900;8.146;2023-03-31T00:08:17;9.40;99.90
36594;DHT22;22603;47.900;8.146;2023-03-31T00:11:06;9.40;99.90
36594;DHT22;22603;47.900;8.146;2023-03-31T00:13:53;9.50;99.90
36594;DHT22;22603;47.900;8.146;2023-03-31T00:16:42;9.50;99.90
36594;DHT22;22603;47.900;8.146;2023-03-31T00:19:30;9.40;99.90
36594;DHT22;22603;47.900;8.146;2023-03-31T00:22:18;9.30;99.90
36594;DHT22;22603;47.900;8.146;2023-03-31T00:25:08;9.20;99.90
36594;DHT22;22603;47.900;8.146;2023-03-31T00:27:55;9.10;99.90
36594;DHT22;22603;47.900;8.146;2023-03-31T00:30:42;9.10;99.90
36594;DHT22;22603;47.900;8.146;2023-03-31T00:33:31;9.10;99.90
36594;DHT22;22603;47.900;8.146;2023-03-31T00:36:19;9.00;99.90
36594;DHT22;22603;47.900;8.146;2023-03-31T00:39:11;9.00;99.90
36594;DHT22;22603;47.900;8.146;2023-03-31T00:42:01;9.00;99.90
36594;DHT22;22603;47.900;8.146;2023-03-31T00:45:23;9.00;99.90
36594;DHT22;22603;47.900;8.146;2023-03-31T00:48:15;9.00;99.90
36594;DHT22;22603;47.900;8.146;2023-03-31T00:51:05;8.90;99.90
36594;DHT22;22603;47.900;8.146;2023-03-31T00:53:58;8.80;99.90
36594;DHT22;22603;47.900;8.146;2023-03-31T00:56:48;8.70;99.90
36594;DHT22;22603;47.900;8.146;2023-03-31T00:59:43;8.50;99.90
36594;DHT22;22603;47.900;8.146;2023-03-31T01:02:32;8.40;99.90
36594;DHT22;22603;47.900;8.146;2023-03-31T01:05:21;8.30;99.90
36594;DHT22;22603;47.900;8.146;2023-03-31T01:08:09;8.20;99.90
36594;DHT22;22603;47.900;8.146;2023-03-31T01:11:02;8.20;99.90
36594;DHT22;22603;47.900;8.146;2023-03-31T01:13:52;8.10;99.90
36594;DHT22;22603;47.900;8.146;2023-03-31T01:16:44;8.00;99.90
36594;DHT22;22603;47.900;8.146;2023-03-31T01:19:43;7.90;99.90
36594;DHT22;22603;47.900;8.146;2023-03-31T01:40:01;7.40;99.90
36594;DHT22;22603;47.900;8.146;2023-03-31T01:42:56;7.20;99.90
36594;DHT22;22603;47.900;8.146;2023-03-31T01:45:53;7.20;99.90
36594;DHT22;22603;47.900;8.146;2023-03-31T01:48:49;7.10;99.90
36594;DHT22;22603;47.900;8.146;2023-03-31T01:51:44;7.10;99.90
36594;DHT22;22603;47.900;8.146;2023-03-31T01:54:37;7.10;99.90
36594;DHT22;22603;47.900;8.146;2023-03-31T01:57:30;7.10;99.90
36594;DHT22;22603;47.900;8.146;2023-03-31T02:00:24;7.10;99.90
36594;DHT22;22603;47.900;8.146;2023-03-31T02:03:16;7.00;99.90
36594;DHT22;22603;47.900;8.146;2023-03-31T02:06:10;7.00;99.90
36594;DHT22;22603;47.900;8.146;2023-03-31T02:09:01;7.00;99.90
36594;DHT22;22603;47.900;8.146;2023-03-31T02:11:51;7.00;99.90
36594;DHT22;22603;47.900;8.146;2023-03-31T02:14:44;7.00;99.90
36594;DHT22;22603;47.900;8.146;2023-03-31T02:17:37;7.00;99.90
36594;DHT22;22603;47.900;8.146;2023-03-31T02:20:28;6.90;99.90
36594;DHT22;22603;47.900;8.146;2023-03-31T02:23:21;6.90;99.90
36594;DHT22;22603;47.900;8.146;2023-03-31T02:26:13;6.90;99.90
36594;DHT22;22603;47.900;8.146;2023-03-31T02:29:01;6.80;99.90
36594;DHT22;22603;47.900;8.146;2023-03-31T02:31:56;6.80;99.90
36594;DHT22;22603;47.900;8.146;2023-03-31T02:34:45;6.90;99.90
36594;DHT22;22603;47.900;8.146;2023-03-31T02:37:33;6.90;99.90
36594;DHT22;22603;47.900;8.146;2023-03-31T02:40:22;7.00;99.90
36594;DHT22;22603;47.900;8.146;2023-03-31T02:43:12;7.00;99.90
36594;DHT22;22603;47.900;8.146;2023-03-31T02:45:59;7.20;99.90
36594;DHT22;22603;47.900;8.146;2023-03-31T02:48:50;7.20;99.90
36594;DHT22;22603;47.900;8.146;2023-03-31T02:55:16;7.10;99.90
36594;DHT22;22603;47.900;8.146;2023-03-31T02:58:25;7.00;99.90
36594;DHT22;22603;47.900;8.146;2023-03-31T03:01:26;7.00;99.90
36594;DHT22;22603;47.900;8.146;2023-03-31T03:04:35;7.00;99.90
36594;DHT22;22603;47.900;8.146;2023-03-31T03:07:35;6.90;99.90
36594;DHT22;22603;47.900;8.146;2023-03-31T03:10:36;6.90;99.90
36594;DHT22;22603;47.900;8.146;2023-03-31T03:13:35;6.90;99.90
36594;DHT22;22603;47.900;8.146;2023-03-31T03:16:29;6.80;99.90
36594;DHT22;22603;47.900;8.146;2023-03-31T03:19:31;6.80;99.90
36594;DHT22;22603;47.900;8.146;2023-03-31T03:22:23;6.80;99.90
36594;DHT22;22603;47.900;8.146;2023-03-31T03:25:15;6.90;99.90
36594;DHT22;22603;47.900;8.146;2023-03-31T03:30:46;7.20;99.90
36594;DHT22;22603;47.900;8.146;2023-03-31T03:33:33;7.40;99.90
36594;DHT22;22603;47.900;8.146;2023-03-31T03:36:21;7.60;99.90
36594;DHT22;22603;47.900;8.146;2023-03-31T03:39:08;7.70;99.90
36594;DHT22;22603;47.900;8.146;2023-03-31T03:44:48;8.10;99.90
36594;DHT22;22603;47.900;8.146;2023-03-31T03:47:35;8.30;99.90
36594;DHT22;22603;47.900;8.146;2023-03-31T03:50:22;8.30;99.90
36594;DHT22;22603;47.900;8.146;2023-03-31T03:53:11;8.20;99.90
36594;DHT22;22603;47.900;8.146;2023-03-31T03:55:58;8.50;99.90
36594;DHT22;22603;47.900;8.146;2023-03-31T03:58:46;8.50;99.90
36594;DHT22;22603;47.900;8.146;2023-03-31T04:01:33;8.50;99.90
36594;DHT22;22603;47.900;8.146;2023-03-31T04:04:20;8.60;99.90
36594;DHT22;22603;47.900;8.146;2023-03-31T04:07:07;8.60;99.90
36594;DHT22;22603;47.900;8.146;2023-03-31T04:09:55;8.70;99.90
36594;DHT22;22603;47.900;8.146;2023-03-31T04:12:42;8.60;99.90
36594;DHT22;22603;47.900;8.146;2023-03-31T04:15:29;8.70;99.90
36594;DHT22;22603;47.900;8.146;2023-03-31T04:18:16;8.70;99.90
36594;DHT22;22603;47.900;8.146;2023-03-31T04:21:08;8.80;99.90
36594;DHT22;22603;47.900;8.146;2023-03-31T04:23:57;8.70;99.90
36594;DHT22;22603;47.900;8.146;2023-03-31T04:26:48;8.70;99.90
36594;DHT22;22603;47.900;8.146;2023-03-31T04:29:35;8.70;99.90
36594;DHT22;22603;47.900;8.146;2023-03-31T04:32:22;8.80;99.90
36594;DHT22;22603;47.900;8.146;2023-03-31T04:35:09;8.70;99.90
36594;DHT22;22603;47.900;8.146;2023-03-31T04:38:00;8.50;99.90
36594;DHT22;22603;47.900;8.146;2023-03-31T04:40:49;8.60;99.90
36594;DHT22;22603;47.900;8.146;2023-03-31T04:43:37;8.50;99.90
36594;DHT22;22603;47.900;8.146;2023-03-31T04:46:24;8.30;99.90
36594;DHT22;22603;47.900;8.146;2023-03-31T04:49:13;8.20;99.90
36594;DHT22;22603;47.900;8.146;2023-03-31T04:52:00;8.20;99.90
36594;DHT22;22603;47.900;8.146;2023-03-31T04:54:47;8.10;99.90
36594;DHT22;22603;47.900;8.146;2023-03-31T04:57:34;8.00;99.90
36594;DHT22;22603;47.900;8.146;2023-03-31T05:00:23;8.00;99.90
36594;DHT22;22603;47.900;8.146;2023-03-31T05:03:11;7.90;99.90
36594;DHT22;22603;47.900;8.146;2023-03-31T05:05:58;7.90;99.90
36594;DHT22;22603;47.900;8.146;2023-03-31T05:08:45;7.90;99.90
36594;DHT22;22603;47.900;8.146;2023-03-31T05:11:32;7.90;99.90
36594;DHT22;22603;47.900;8.146;2023-03-31T05:14:18;7.90;99.90
36594;DHT22;22603;47.900;8.146;2023-03-31T05:17:07;7.90;99.90
36594;DHT22;22603;47.900;8.146;2023-03-31T05:19:54;7.80;99.90
36594;DHT22;22603;47.900;8.146;2023-03-31T05:22:41;7.80;99.90
36594;DHT22;22603;47.900;8.146;2023-03-31T05:25:28;7.90;99.90
36594;DHT22;22603;47.900;8.146;2023-03-31T05:28:17;7.90;99.90
36594;DHT22;22603;47.900;8.146;2023-03-31T05:31:05;7.90;99.90
36594;DHT22;22603;47.900;8.146;2023-03-31T05:33:54;7.80;99.90
36594;DHT22;22603;47.900;8.146;2023-03-31T05:36:41;7.80;99.90
36594;DHT22;22603;47.900;8.146;2023-03-31T05:39:28;7.80;99.90
36594;DHT22;22603;47.900;8.146;2023-03-31T05:42:18;7.80;99.90
36594;DHT22;22603;47.900;8.146;2023-03-31T05:45:07;7.80;99.90
36594;DHT22;22603;47.900;8.146;2023-03-31T05:47:54;8.00;99.90
36594;DHT22;22603;47.900;8.146;2023-03-31T05:50:42;7.90;99.90
36594;DHT22;22603;47.900;8.146;2023-03-31T05:53:29;8.00;99.90
36594;DHT22;22603;47.900;8.146;2023-03-31T05:56:16;8.00;99.90
36594;DHT22;22603;47.900;8.146;2023-03-31T05:59:03;8.00;99.90
36594;DHT22;22603;47.900;8.146;2023-03-31T06:01:50;8.10;99.90
36594;DHT22;22603;47.900;8.146;2023-03-31T06:04:37;8.10;99.90
36594;DHT22;22603;47.900;8.146;2023-03-31T06:07:25;8.20;99.90
36594;DHT22;22603;47.900;8.146;2023-03-31T06:10:12;8.50;99.90
36594;DHT22;22603;47.900;8.146;2023-03-31T06:13:00;8.40;99.90
36594;DHT22;22603;47.900;8.146;2023-03-31T06:15:52;8.40;99.90
36594;DHT22;22603;47.900;8.146;2023-03-31T06:18:40;8.30;99.90
36594;DHT22;22603;47.900;8.146;2023-03-31T06:21:27;8.40;99.90
36594;DHT22;22603;47.900;8.146;2023-03-31T06:24:15;8.40;99.90
36594;DHT22;22603;47.900;8.146;2023-03-31T06:27:03;8.40;99.90
36594;DHT22;22603;47.900;8.146;2023-03-31T06:29:53;8.50;99.90
36594;DHT22;22603;47.900;8.146;2023-03-31T06:32:40;8.40;99.90
36594;DHT22;22603;47.900;8.146;2023-03-31T06:35:27;8.10;99.90
36594;DHT22;22603;47.900;8.146;2023-03-31T06:38:15;7.70;99.90
36594;DHT22;22603;47.900;8.146;2023-03-31T06:41:03;7.40;99.90
36594;DHT22;22603;47.900;8.146;2023-03-31T06:43:51;7.20;99.90
36594;DHT22;22603;47.900;8.146;2023-03-31T06:46:38;6.90;99.90
36594;DHT22;22603;47.900;8.146;2023-03-31T06:49:25;6.70;99.90
36594;DHT22;22603;47.900;8.146;2023-03-31T06:52:12;6.50;99.90
36594;DHT22;22603;47.900;8.146;2023-03-31T06:54:59;6.40;99.90
36594;DHT22;22603;47.900;8.146;2023-03-31T06:57:47;6.30;99.90
36594;DHT22;22603;47.900;8.146;2023-03-31T07:00:34;6.30;99.90
36594;DHT22;22603;47.900;8.146;2023-03-31T07:03:21;6.40;99.90
36594;DHT22;22603;47.900;8.146;2023-03-31T07:06:09;6.50;99.90
36594;DHT22;22603;47.900;8.146;2023-03-31T07:08:56;6.60;99.90
36594;DHT22;22603;47.900;8.146;2023-03-31T07:11:43;6.90;99.90
36594;DHT22;22603;47.900;8.146;2023-03-31T07:14:32;7.10;99.90
36594;DHT22;22603;47.900;8.146;2023-03-31T07:17:19;7.50;99.90
36594;DHT22;22603;47.900;8.146;2023-03-31T07:20:07;8.10;99.90
36594;DHT22;22603;47.900;8.146;2023-03-31T07:22:57;8.20;99.90
36594;DHT22;22603;47.900;8.146;2023-03-31T07:25:45;8.50;99.90
36594;DHT22;22603;47.900;8.146;2023-03-31T07:28:32;8.50;99.90
36594;DHT22;22603;47.900;8.146;2023-03-31T07:31:21;8.60;99.90
36594;DHT22;22603;47.900;8.146;2023-03-31T07:34:08;8.50;99.90
36594;DHT22;22603;47.900;8.146;2023-03-31T07:36:55;8.60;99.90
36594;DHT22;22603;47.900;8.146;2023-03-31T07:39:45;8.90;99.90
36594;DHT22;22603;47.900;8.146;2023-03-31T07:42:33;9.10;99.90
36594;DHT22;22603;47.900;8.146;2023-03-31T07:45:25;9.10;99.90
36594;DHT22;22603;47.900;8.146;2023-03-31T07:48:13;9.10;99.90
36594;DHT22;22603;47.900;8.146;2023-03-31T07:51:00;9.70;99.90
36594;DHT22;22603;47.900;8.146;2023-03-31T07:53:48;9.70;99.90
36594;DHT22;22603;47.900;8.146;2023-03-31T07:56:36;9.60;99.90
36594;DHT22;22603;47.900;8.146;2023-03-31T07:59:23;9.40;99.90
36594;DHT22;22603;47.900;8.146;2023-03-31T08:02:12;9.50;99.90
36594;DHT22;22603;47.900;8.146;2023-03-31T08:05:01;9.60;99.90
36594;DHT22;22603;47.900;8.146;2023-03-31T08:07:49;9.30;99.90
36594;DHT22;22603;47.900;8.146;2023-03-31T08:10:39;9.30;99.90
36594;DHT22;22603;47.900;8.146;2023-03-31T08:13:26;9.40;99.90
36594;DHT22;22603;47.900;8.146;2023-03-31T08:16:13;10.10;99.90
36594;DHT22;22603;47.900;8.146;2023-03-31T08:19:00;10.50;99.90
36594;DHT22;22603;47.900;8.146;2023-03-31T08:21:49;10.80;99.90
36594;DHT22;22603;47.900;8.146;2023-03-31T08:24:36;10.90;99.90
36594;DHT22;22603;47.900;8.146;2023-03-31T08:27:24;10.90;99.90
36594;DHT22;22603;47.900;8.146;2023-03-31T08:30:12;11.10;99.90
36594;DHT22;22603;47.900;8.146;2023-03-31T08:32:59;11.60;99.90
36594;DHT22;22603;47.900;8.146;2023-03-31T08:35:46;12.10;99.90
36594;DHT22;22603;47.900;8.146;2023-03-31T08:38:34;12.40;99.90
36594;DHT22;22603;47.900;8.146;2023-03-31T08:41:33;11.80;99.90
36594;DHT22;22603;47.900;8.146;2023-03-31T08:44:29;11.50;99.90
36594;DHT22;22603;47.900;8.146;2023-03-31T08:47:20;10.90;99.90
36594;DHT22;22603;47.900;8.146;2023-03-31T08:50:12;10.50;99.90
36594;DHT22;22603;47.900;8.146;2023-03-31T08:53:04;10.30;99.90
36594;DHT22;22603;47.900;8.146;2023-03-31T08:55:54;10.20;99.90
36594;DHT22;22603;47.900;8.146;2023-03-31T08:58:42;10.40;99.90
36594;DHT22;22603;47.900;8.146;2023-03-31T09:01:38;10.80;99.90
36594;DHT22;22603;47.900;8.146;2023-03-31T09:04:58;11.30;99.90
36594;DHT22;22603;47.900;8.146;2023-03-31T09:07:54;11.50;99.90
36594;DHT22;22603;47.900;8.146;2023-03-31T09:10:53;10.90;99.90
36594;DHT22;22603;47.900;8.146;2023-03-31T09:13:54;10.50;99.90
36594;DHT22;22603;47.900;8.146;2023-03-31T09:16:49;10.30;99.90
36594;DHT22;22603;47.900;8.146;2023-03-31T09:19:40;10.10;99.90
36594;DHT22;22603;47.900;8.146;2023-03-31T09:22:32;10.20;99.90
36594;DHT22;22603;47.900;8.146;2023-03-31T09:25:24;10.60;99.90
36594;DHT22;22603;47.900;8.146;2023-03-31T09:28:20;11.20;99.90
36594;DHT22;22603;47.900;8.146;2023-03-31T09:31:12;12.00;99.90
36594;DHT22;22603;47.900;8.146;2023-03-31T09:34:01;12.20;99.90
36594;DHT22;22603;47.900;8.146;2023-03-31T09:36:55;11.50;99.90
36594;DHT22;22603;47.900;8.146;2023-03-31T09:39:43;11.00;99.90
36594;DHT22;22603;47.900;8.146;2023-03-31T09:42:32;10.70;99.90
36594;DHT22;22603;47.900;8.146;2023-03-31T09:45:21;10.60;99.90
36594;DHT22;22603;47.900;8.146;2023-03-31T09:48:13;11.00;99.90
36594;DHT22;22603;47.900;8.146;2023-03-31T09:51:03;11.30;99.90
36594;DHT22;22603;47.900;8.146;2023-03-31T09:53:53;11.60;99.90
36594;DHT22;22603;47.900;8.146;2023-03-31T09:56:51;11.80;99.90
36594;DHT22;22603;47.900;8.146;2023-03-31T09:59:38;11.70;99.90
36594;DHT22;22603;47.900;8.146;2023-03-31T10:02:35;11.20;99.90
36594;DHT22;22603;47.900;8.146;2023-03-31T10:05:28;11.20;99.90
36594;DHT22;22603;47.900;8.146;2023-03-31T10:08:23;10.90;99.90
36594;DHT22;22603;47.900;8.146;2023-03-31T10:11:11;10.90;99.90
36594;DHT22;22603;47.900;8.146;2023-03-31T10:14:00;10.90;99.90
36594;DHT22;22603;47.900;8.146;2023-03-31T10:16:52;11.40;99.90
36594;DHT22;22603;47.900;8.146;2023-03-31T10:19:48;12.50;99.90
36594;DHT22;22603;47.900;8.146;2023-03-31T10:22:43;13.10;99.90
36594;DHT22;22603;47.900;8.146;2023-03-31T10:25:32;14.10;99.90
36594;DHT22;22603;47.900;8.146;2023-03-31T10:28:20;15.00;99.90
36594;DHT22;22603;47.900;8.146;2023-03-31T10:31:08;13.50;99.90
36594;DHT22;22603;47.900;8.146;2023-03-31T10:33:56;12.90;99.90
36594;DHT22;22603;47.900;8.146;2023-03-31T10:36:47;12.20;99.90
36594;DHT22;22603;47.900;8.146;2023-03-31T10:39:36;11.90;99.90
36594;DHT22;22603;47.900;8.146;2023-03-31T10:42:24;11.40;99.90
36594;DHT22;22603;47.900;8.146;2023-03-31T10:45:23;11.30;99.90
36594;DHT22;22603;47.900;8.146;2023-03-31T10:48:27;11.20;99.90
36594;DHT22;22603;47.900;8.146;2023-03-31T10:51:16;11.10;99.90
36594;DHT22;22603;47.900;8.146;2023-03-31T10:54:07;10.40;99.90
36594;DHT22;22603;47.900;8.146;2023-03-31T10:56:57;10.10;99.90
36594;DHT22;22603;47.900;8.146;2023-03-31T10:59:53;10.30;99.90
36594;DHT22;22603;47.900;8.146;2023-03-31T11:03:09;11.80;99.90
36594;DHT22;22603;47.900;8.146;2023-03-31T11:06:04;12.90;99.90
36594;DHT22;22603;47.900;8.146;2023-03-31T11:09:09;12.20;99.90
36594;DHT22;22603;47.900;8.146;2023-03-31T11:12:05;12.00;99.90
36594;DHT22;22603;47.900;8.146;2023-03-31T11:15:04;11.10;99.90
36594;DHT22;22603;47.900;8.146;2023-03-31T11:18:04;10.70;99.90
36594;DHT22;22603;47.900;8.146;2023-03-31T11:21:00;10.60;99.90
36594;DHT22;22603;47.900;8.146;2023-03-31T11:23:57;10.80;99.90
36594;DHT22;22603;47.900;8.146;2023-03-31T11:26:55;11.10;99.90
36594;DHT22;22603;47.900;8.146;2023-03-31T11:29:50;11.80;99.90
36594;DHT22;22603;47.900;8.146;2023-03-31T11:32:47;12.60;99.90
36594;DHT22;22603;47.900;8.146;2023-03-31T11:35:47;12.50;99.90
36594;DHT22;22603;47.900;8.146;2023-03-31T11:38:58;11.60;99.90
36594;DHT22;22603;47.900;8.146;2023-03-31T11:41:50;10.90;99.90
36594;DHT22;22603;47.900;8.146;2023-03-31T11:44:41;10.70;99.90
36594;DHT22;22603;47.900;8.146;2023-03-31T11:47:34;10.40;99.90
36594;DHT22;22603;47.900;8.146;2023-03-31T11:50:25;10.20;99.90
36594;DHT22;22603;47.900;8.146;2023-03-31T11:53:16;9.90;99.90
36594;DHT22;22603;47.900;8.146;2023-03-31T11:56:07;9.50;99.90
36594;DHT22;22603;47.900;8.146;2023-03-31T11:58:58;9.20;99.90
36594;DHT22;22603;47.900;8.146;2023-03-31T12:01:52;9.00;99.90
36594;DHT22;22603;47.900;8.146;2023-03-31T12:04:44;8.30;99.90
36594;DHT22;22603;47.900;8.146;2023-03-31T12:07:42;7.80;99.90
36594;DHT22;22603;47.900;8.146;2023-03-31T12:10:34;7.30;99.90
36594;DHT22;22603;47.900;8.146;2023-03-31T12:13:34;7.00;99.90
36594;DHT22;22603;47.900;8.146;2023-03-31T12:16:25;6.70;99.90
36594;DHT22;22603;47.900;8.146;2023-03-31T12:19:20;6.90;99.90
36594;DHT22;22603;47.900;8.146;2023-03-31T12:22:12;7.20;99.90
36594;DHT22;22603;47.900;8.146;2023-03-31T12:25:01;7.80;99.90
36594;DHT22;22603;47.900;8.146;2023-03-31T12:27:48;8.80;99.90
36594;DHT22;22603;47.900;8.146;2023-03-31T12:30:38;9.00;99.90
36594;DHT22;22603;47.900;8.146;2023-03-31T12:33:30;9.00;99.90
36594;DHT22;22603;47.900;8.146;2023-03-31T12:36:28;9.70;99.90
36594;DHT22;22603;47.900;8.146;2023-03-31T12:39:24;10.00;99.90
36594;DHT22;22603;47.900;8.146;2023-03-31T12:42:41;10.60;99.90
36594;DHT22;22603;47.900;8.146;2023-03-31T12:45:35;10.50;99.90
36594;DHT22;22603;47.900;8.146;2023-03-31T12:48:46;10.70;99.90
36594;DHT22;22603;47.900;8.146;2023-03-31T12:51:47;11.30;99.90
36594;DHT22;22603;47.900;8.146;2023-03-31T12:55:05;11.60;99.90
36594;DHT22;22603;47.900;8.146;2023-03-31T13:01:21;10.90;99.90
36594;DHT22;22603;47.900;8.146;2023-03-31T13:04:19;11.30;99.90
36594;DHT22;22603;47.900;8.146;2023-03-31T13:07:12;11.60;99.90
36594;DHT22;22603;47.900;8.146;2023-03-31T13:10:25;11.80;99.90
36594;DHT22;22603;47.900;8.146;2023-03-31T13:13:14;11.30;99.90
36594;DHT22;22603;47.900;8.146;2023-03-31T13:16:06;11.30;99.90
36594;DHT22;22603;47.900;8.146;2023-03-31T13:18:54;11.40;99.90
36594;DHT22;22603;47.900;8.146;2023-03-31T13:21:58;11.60;99.90
36594;DHT22;22603;47.900;8.146;2023-03-31T13:24:46;11.80;99.90
36594;DHT22;22603;47.900;8.146;2023-03-31T13:27:33;11.70;99.90
36594;DHT22;22603;47.900;8.146;2023-03-31T13:33:52;10.90;99.90
36594;DHT22;22603;47.900;8.146;2023-03-31T13:37:08;10.70;99.90
36594;DHT22;22603;47.900;8.146;2023-03-31T13:40:12;10.50;99.90
36594;DHT22;22603;47.900;8.146;2023-03-31T13:43:21;10.50;99.90
36594;DHT22;22603;47.900;8.146;2023-03-31T13:46:43;10.20;99.90
36594;DHT22;22603;47.900;8.146;2023-03-31T13:50:01;9.50;99.90
36594;DHT22;22603;47.900;8.146;2023-03-31T13:52:59;8.40;99.90
36594;DHT22;22603;47.900;8.146;2023-03-31T13:56:08;7.80;99.90
36594;DHT22;22603;47.900;8.146;2023-03-31T14:02:43;6.50;99.90
36594;DHT22;22603;47.900;8.146;2023-03-31T14:05:39;6.10;99.90
36594;DHT22;22603;47.900;8.146;2023-03-31T14:08:38;5.80;99.90
36594;DHT22;22603;47.900;8.146;2023-03-31T14:11:31;5.50;99.90
36594;DHT22;22603;47.900;8.146;2023-03-31T14:14:18;5.60;99.90
36594;DHT22;22603;47.900;8.146;2023-03-31T14:17:05;5.60;99.90
36594;DHT22;22603;47.900;8.146;2023-03-31T14:20:18;5.70;99.90
36594;DHT22;22603;47.900;8.146;2023-03-31T14:23:15;5.90;99.90
36594;DHT22;22603;47.900;8.146;2023-03-31T14:26:12;6.00;99.90
36594;DHT22;22603;47.900;8.146;2023-03-31T14:29:09;6.10;99.90
36594;DHT22;22603;47.900;8.146;2023-03-31T14:32:09;6.00;99.90
36594;DHT22;22603;47.900;8.146;2023-03-31T14:35:10;5.90;99.90
36594;DHT22;22603;47.900;8.146;2023-03-31T14:38:03;6.10;99.90
36594;DHT22;22603;47.900;8.146;2023-03-31T14:40:52;6.10;99.90
36594;DHT22;22603;47.900;8.146;2023-03-31T14:43:46;6.20;99.90
36594;DHT22;22603;47.900;8.146;2023-03-31T14:46:37;6.00;99.90
36594;DHT22;22603;47.900;8.146;2023-03-31T14:49:26;6.00;99.90
36594;DHT22;22603;47.900;8.146;2023-03-31T14:52:16;5.90;99.90
36594;DHT22;22603;47.900;8.146;2023-03-31T14:55:05;5.70;99.90
36594;DHT22;22603;47.900;8.146;2023-03-31T14:57:53;5.60;99.90
36594;DHT22;22603;47.900;8.146;2023-03-31T15:00:44;5.50;99.90
36594;DHT22;22603;47.900;8.146;2023-03-31T15:03:33;5.50;99.90
36594;DHT22;22603;47.900;8.146;2023-03-31T15:06:23;5.60;99.90
36594;DHT22;22603;47.900;8.146;2023-03-31T15:09:14;5.70;99.90
36594;DHT22;22603;47.900;8.146;2023-03-31T15:12:06;6.20;99.90
36594;DHT22;22603;47.900;8.146;2023-03-31T15:14:56;6.90;99.90
36594;DHT22;22603;47.900;8.146;2023-03-31T15:17:46;7.10;99.90
36594;DHT22;22603;47.900;8.146;2023-03-31T15:20:35;7.40;99.90
36594;DHT22;22603;47.900;8.146;2023-03-31T15:23:24;7.40;99.90
36594;DHT22;22603;47.900;8.146;2023-03-31T15:26:15;7.40;99.90
36594;DHT22;22603;47.900;8.146;2023-03-31T15:29:12;7.20;99.90
36594;DHT22;22603;47.900;8.146;2023-03-31T15:32:02;7.00;99.90
36594;DHT22;22603;47.900;8.146;2023-03-31T15:34:55;6.90;99.90
36594;DHT22;22603;47.900;8.146;2023-03-31T15:37:57;6.70;99.90
36594;DHT22;22603;47.900;8.146;2023-03-31T15:40:48;6.70;99.90
36594;DHT22;22603;47.900;8.146;2023-03-31T15:43:45;6.70;99.90
36594;DHT22;22603;47.900;8.146;2023-03-31T15:46:58;6.70;99.90
36594;DHT22;22603;47.900;8.146;2023-03-31T15:49:50;6.80;99.90
36594;DHT22;22603;47.900;8.146;2023-03-31T15:52:46;6.90;99.90
36594;DHT22;22603;47.900;8.146;2023-03-31T15:55:40;6.90;99.90
36594;DHT22;22603;47.900;8.146;2023-03-31T15:58:47;6.90;99.90
36594;DHT22;22603;47.900;8.146;2023-03-31T16:01:43;6.90;99.90
36594;DHT22;22603;47.900;8.146;2023-03-31T16:04:32;6.70;99.90
36594;DHT22;22603;47.900;8.146;2023-03-31T16:07:21;6.70;99.90
36594;DHT22;22603;47.900;8.146;2023-03-31T16:10:17;6.70;99.90
36594;DHT22;22603;47.900;8.146;2023-03-31T16:13:05;6.40;99.90
36594;DHT22;22603;47.900;8.146;2023-03-31T16:15:55;6.60;99.90
36594;DHT22;22603;47.900;8.146;2023-03-31T16:18:46;6.60;99.90
36594;DHT22;22603;47.900;8.146;2023-03-31T16:21:37;6.50;99.90
36594;DHT22;22603;47.900;8.146;2023-03-31T16:24:29;6.50;99.90
36594;DHT22;22603;47.900;8.146;2023-03-31T16:27:19;6.50;99.90
36594;DHT22;22603;47.900;8.146;2023-03-31T16:30:09;6.50;99.90
36594;DHT22;22603;47.900;8.146;2023-03-31T16:33:01;6.40;99.90
36594;DHT22;22603;47.900;8.146;2023-03-31T16:35:51;6.40;99.90
36594;DHT22;22603;47.900;8.146;2023-03-31T16:38:41;6.40;99.90
36594;DHT22;22603;47.900;8.146;2023-03-31T16:41:28;6.40;99.90
36594;DHT22;22603;47.900;8.146;2023-03-31T16:44:17;6.40;99.90
36594;DHT22;22603;47.900;8.146;2023-03-31T16:47:04;6.40;99.90
36594;DHT22;22603;47.900;8.146;2023-03-31T16:49:51;6.40;99.90
36594;DHT22;22603;47.900;8.146;2023-03-31T16:52:38;6.40;99.90
36594;DHT22;22603;47.900;8.146;2023-03-31T16:55:24;6.40;99.90
36594;DHT22;22603;47.900;8.146;2023-03-31T16:58:12;6.40;99.90
36594;DHT22;22603;47.900;8.146;2023-03-31T17:01:01;6.40;99.90
36594;DHT22;22603;47.900;8.146;2023-03-31T17:03:48;6.30;99.90
36594;DHT22;22603;47.900;8.146;2023-03-31T17:06:35;6.20;99.90
36594;DHT22;22603;47.900;8.146;2023-03-31T17:09:22;6.20;99.90
36594;DHT22;22603;47.900;8.146;2023-03-31T17:12:10;6.20;99.90
36594;DHT22;22603;47.900;8.146;2023-03-31T17:14:58;6.20;99.90
36594;DHT22;22603;47.900;8.146;2023-03-31T17:17:48;6.10;99.90
36594;DHT22;22603;47.900;8.146;2023-03-31T17:20:36;6.20;99.90
36594;DHT22;22603;47.900;8.146;2023-03-31T17:23:23;6.20;99.90
36594;DHT22;22603;47.900;8.146;2023-03-31T17:26:11;6.10;99.90
36594;DHT22;22603;47.900;8.146;2023-03-31T17:29:01;6.10;99.90
36594;DHT22;22603;47.900;8.146;2023-03-31T17:31:48;6.10;99.90
36594;DHT22;22603;47.900;8.146;2023-03-31T17:34:37;6.10;99.90
36594;DHT22;22603;47.900;8.146;2023-03-31T17:37:24;6.00;99.90
36594;DHT22;22603;47.900;8.146;2023-03-31T17:40:12;6.20;99.90
36594;DHT22;22603;47.900;8.146;2023-03-31T17:43:00;5.90;99.90
36594;DHT22;22603;47.900;8.146;2023-03-31T17:45:47;5.90;99.90
36594;DHT22;22603;47.900;8.146;2023-03-31T17:48:34;5.90;99.90
36594;DHT22;22603;47.900;8.146;2023-03-31T17:51:23;5.90;99.90
36594;DHT22;22603;47.900;8.146;2023-03-31T17:54:10;5.90;99.90
36594;DHT22;22603;47.900;8.146;2023-03-31T17:56:57;5.90;99.90
36594;DHT22;22603;47.900;8.146;2023-03-31T17:59:45;5.90;99.90
36594;DHT22;22603;47.900;8.146;2023-03-31T18:02:34;5.90;99.90
36594;DHT22;22603;47.900;8.146;2023-03-31T18:05:21;5.90;99.90
36594;DHT22;22603;47.900;8.146;2023-03-31T18:08:12;6.00;99.90
36594;DHT22;22603;47.900;8.146;2023-03-31T18:11:01;6.00;99.90
36594;DHT22;22603;47.900;8.146;2023-03-31T18:13:49;6.10;99.90
36594;DHT22;22603;47.900;8.146;2023-03-31T18:16:40;6.10;99.90
36594;DHT22;22603;47.900;8.146;2023-03-31T18:19:27;6.20;99.90
36594;DHT22;22603;47.900;8.146;2023-03-31T18:22:14;6.20;99.90
36594;DHT22;22603;47.900;8.146;2023-03-31T18:25:03;6.20;99.90
36594;DHT22;22603;47.900;8.146;2023-03-31T18:27:50;6.20;99.90
36594;DHT22;22603;47.900;8.146;2023-03-31T18:30:41;6.30;99.90
36594;DHT22;22603;47.900;8.146;2023-03-31T18:33:28;6.30;99.90
36594;DHT22;22603;47.900;8.146;2023-03-31T18:36:17;6.20;99.90
36594;DHT22;22603;47.900;8.146;2023-03-31T18:39:05;6.20;99.90
36594;DHT22;22603;47.900;8.146;2023-03-31T18:41:53;6.10;99.90
36594;DHT22;22603;47.900;8.146;2023-03-31T18:44:40;6.20;99.90
36594;DHT22;22603;47.900;8.146;2023-03-31T18:47:28;6.20;99.90
36594;DHT22;22603;47.900;8.146;2023-03-31T18:50:15;6.10;99.90
36594;DHT22;22603;47.900;8.146;2023-03-31T18:53:04;6.00;99.90
36594;DHT22;22603;47.900;8.146;2023-03-31T18:55:52;6.00;99.90